createdAt,value
2018-05-21T00:00:12.829Z,12.40
2018-05-21T00:02:40.873Z,12.40
2018-05-21T00:05:09.281Z,12.40
2018-05-21T00:07:37.332Z,12.40
2018-05-21T00:10:05.408Z,12.40
2018-05-21T00:12:33.701Z,12.30
2018-05-21T00:15:01.740Z,12.40
2018-05-21T00:17:29.805Z,12.30
2018-05-21T00:19:58.297Z,12.30
2018-05-21T00:22:26.382Z,12.30
2018-05-21T00:24:54.437Z,12.30
2018-05-21T00:27:22.817Z,12.20
2018-05-21T00:29:50.901Z,12.20
2018-05-21T00:32:18.953Z,12.10
2018-05-21T00:34:47.021Z,12.10
2018-05-21T00:37:16.245Z,12.00
2018-05-21T00:39:44.302Z,12.00
2018-05-21T00:42:12.781Z,12.00
2018-05-21T00:44:40.841Z,12.00
2018-05-21T00:47:08.909Z,12.00
2018-05-21T00:49:37.401Z,12.00
2018-05-21T00:52:05.401Z,12.00
2018-05-21T00:54:33.477Z,12.00
2018-05-21T00:57:01.560Z,12.00
2018-05-21T00:59:29.601Z,12.00
2018-05-21T01:01:57.689Z,12.00
2018-05-21T01:04:25.750Z,12.00
2018-05-21T01:06:53.802Z,12.00
2018-05-21T01:09:21.865Z,11.90
2018-05-21T01:11:50.281Z,12.00
2018-05-21T01:14:18.352Z,11.90
2018-05-21T01:16:46.425Z,11.90
2018-05-21T01:19:14.801Z,11.90
2018-05-21T01:21:42.857Z,11.80
2018-05-21T01:24:11.841Z,11.80
2018-05-21T01:26:39.937Z,11.80
2018-05-21T01:29:07.992Z,11.70
2018-05-21T01:31:36.389Z,11.70
2018-05-21T01:34:04.474Z,11.60
2018-05-21T01:36:32.517Z,11.60
2018-05-21T01:39:00.880Z,11.60
2018-05-21T01:41:28.941Z,11.60
2018-05-21T01:43:57.036Z,11.60
2018-05-21T01:46:25.429Z,11.50
2018-05-21T01:48:53.484Z,11.50
2018-05-21T01:51:21.546Z,11.50
2018-05-21T01:53:49.646Z,11.50
2018-05-21T01:56:17.696Z,11.50
2018-05-21T01:58:45.762Z,11.50
2018-05-21T02:01:14.137Z,11.40
2018-05-21T02:03:42.221Z,11.40
2018-05-21T02:06:10.281Z,11.40
2018-05-21T02:08:38.633Z,11.40
2018-05-21T02:11:06.641Z,11.40
2018-05-21T02:13:34.892Z,11.40
2018-05-21T02:16:03.001Z,11.40
2018-05-21T02:18:31.044Z,11.40
2018-05-21T02:20:59.102Z,11.40
2018-05-21T02:23:27.525Z,11.40
2018-05-21T02:25:55.785Z,11.40
2018-05-21T02:28:23.873Z,11.40
2018-05-21T02:30:52.149Z,11.40
2018-05-21T02:33:20.233Z,11.40
2018-05-21T02:35:48.297Z,11.40
2018-05-21T02:38:16.389Z,11.40
2018-05-21T02:40:45.237Z,11.40
2018-05-21T02:43:13.308Z,11.40
2018-05-21T02:45:41.364Z,11.40
2018-05-21T02:48:09.449Z,11.30
2018-05-21T02:50:37.496Z,11.30
2018-05-21T02:53:06.027Z,11.30
2018-05-21T02:55:35.687Z,11.20
2018-05-21T02:58:03.761Z,11.20
2018-05-21T03:00:32.176Z,11.20
2018-05-21T03:03:00.351Z,11.10
2018-05-21T03:05:28.420Z,11.10
2018-05-21T03:07:56.480Z,11.10
2018-05-21T03:10:24.564Z,11.10
2018-05-21T03:12:52.637Z,11.10
2018-05-21T03:15:20.849Z,11.10
2018-05-21T03:17:49.672Z,11.00
2018-05-21T03:20:17.732Z,11.00
2018-05-21T03:22:45.845Z,10.90
2018-05-21T03:25:13.917Z,10.90
2018-05-21T03:27:42.277Z,10.90
2018-05-21T03:30:10.385Z,10.80
2018-05-21T03:32:39.244Z,10.70
2018-05-21T03:35:07.325Z,10.70
2018-05-21T03:37:35.767Z,10.60
2018-05-21T03:40:03.841Z,10.60
2018-05-21T03:42:31.884Z,10.60
2018-05-21T03:45:00.241Z,10.50
2018-05-21T03:47:28.280Z,10.50
2018-05-21T03:49:56.369Z,10.40
2018-05-21T03:52:24.925Z,10.40
2018-05-21T03:54:52.984Z,10.40
2018-05-21T03:57:21.052Z,10.40
2018-05-21T03:59:49.473Z,10.40
2018-05-21T04:02:17.517Z,10.40
2018-05-21T04:04:45.576Z,10.40
2018-05-21T04:07:13.649Z,10.40
2018-05-21T04:09:41.745Z,10.50
2018-05-21T04:12:09.813Z,10.50
2018-05-21T04:14:37.905Z,10.60
2018-05-21T04:17:06.034Z,10.60
2018-05-21T04:19:34.109Z,10.70
2018-05-21T04:22:02.600Z,10.80
2018-05-21T04:24:30.658Z,10.90
2018-05-21T04:26:58.733Z,10.90
2018-05-21T04:29:26.902Z,10.80
2018-05-21T04:31:55.908Z,10.80
2018-05-21T04:34:23.993Z,10.70
2018-05-21T04:36:52.081Z,10.80
2018-05-21T04:39:20.461Z,10.80
2018-05-21T04:41:48.500Z,10.90
2018-05-21T04:44:16.569Z,10.90
2018-05-21T04:46:44.677Z,10.90
2018-05-21T04:49:12.745Z,10.90
2018-05-21T04:51:40.817Z,10.90
2018-05-21T04:54:10.601Z,11.10
2018-05-21T04:56:38.660Z,11.10
2018-05-21T04:59:06.728Z,11.20
2018-05-21T05:01:34.841Z,11.30
2018-05-21T05:04:02.887Z,11.40
2018-05-21T05:06:30.949Z,11.50
2018-05-21T05:08:59.030Z,11.60
2018-05-21T05:11:27.933Z,11.70
2018-05-21T05:13:56.701Z,11.90
2018-05-21T05:16:24.788Z,11.90
2018-05-21T05:18:52.878Z,12.10
2018-05-21T05:21:21.869Z,12.20
2018-05-21T05:23:49.941Z,12.30
2018-05-21T05:26:18.013Z,12.40
2018-05-21T05:28:46.393Z,12.50
2018-05-21T05:31:15.561Z,12.60
2018-05-21T05:33:44.461Z,12.70
2018-05-21T05:36:12.565Z,12.70
2018-05-21T05:38:40.605Z,12.70
2018-05-21T05:41:08.972Z,12.80
2018-05-21T05:43:37.060Z,12.90
2018-05-21T05:46:05.116Z,13.00
2018-05-21T05:48:34.445Z,13.10
2018-05-21T05:51:02.517Z,13.20
2018-05-21T05:53:30.568Z,13.40
2018-05-21T05:55:59.817Z,13.50
2018-05-21T05:58:28.663Z,13.70
2018-05-21T06:00:56.764Z,13.70
2018-05-21T06:03:25.124Z,13.80
2018-05-21T06:05:53.202Z,14.00
2018-05-21T06:08:21.281Z,14.10
2018-05-21T06:10:49.754Z,14.20
2018-05-21T06:13:17.810Z,14.30
2018-05-21T06:15:45.876Z,14.40
2018-05-21T06:18:14.169Z,14.50
2018-05-21T06:20:42.220Z,14.60
2018-05-21T06:23:10.280Z,14.50
2018-05-21T06:25:38.692Z,14.60
2018-05-21T06:28:06.746Z,14.70
2018-05-21T06:30:34.802Z,14.90
2018-05-21T06:33:02.901Z,15.10
2018-05-21T06:35:31.104Z,15.20
2018-05-21T06:37:59.956Z,15.40
2018-05-21T06:40:28.416Z,15.40
2018-05-21T06:42:56.481Z,15.60
2018-05-21T06:45:24.551Z,15.70
2018-05-21T06:47:52.940Z,15.90
2018-05-21T06:50:21.024Z,16.10
2018-05-21T06:52:49.113Z,16.20
2018-05-21T06:55:17.460Z,16.40
2018-05-21T06:57:45.544Z,16.60
2018-05-21T07:00:13.633Z,16.70
2018-05-21T07:02:41.987Z,16.80
2018-05-21T07:05:10.044Z,16.90
2018-05-21T07:07:38.112Z,17.00
2018-05-21T07:10:06.213Z,17.20
2018-05-21T07:12:34.708Z,17.30
2018-05-21T07:15:02.748Z,17.40
2018-05-21T07:17:30.852Z,17.30
2018-05-21T07:19:58.921Z,17.60
2018-05-21T07:22:27.700Z,17.70
2018-05-21T07:24:55.780Z,18.20
2018-05-21T07:27:23.853Z,18.90
2018-05-21T07:29:51.937Z,19.60
2018-05-21T07:32:20.009Z,20.70
2018-05-21T07:34:48.049Z,22.00
2018-05-21T07:37:16.153Z,23.50
2018-05-21T07:39:44.192Z,24.10
2018-05-21T07:42:12.297Z,24.10
2018-05-21T07:44:40.832Z,24.30
2018-05-21T07:47:09.009Z,24.30
2018-05-21T07:49:37.005Z,24.20
2018-05-21T07:52:05.384Z,23.60
2018-05-21T07:54:33.429Z,22.50
2018-05-21T07:57:01.492Z,22.40
2018-05-21T07:59:29.905Z,22.30
2018-05-21T08:01:57.960Z,22.80
2018-05-21T08:04:26.051Z,23.20
2018-05-21T08:06:54.605Z,23.30
2018-05-21T08:09:22.691Z,23.70
2018-05-21T08:11:51.430Z,24.10
2018-05-21T08:14:19.500Z,24.20
2018-05-21T08:16:47.549Z,24.50
2018-05-21T08:19:15.909Z,25.20
2018-05-21T08:21:43.980Z,25.40
2018-05-21T08:24:12.949Z,25.50
2018-05-21T08:26:41.020Z,25.90
2018-05-21T08:29:09.100Z,25.20
2018-05-21T08:31:37.173Z,24.50
2018-05-21T08:34:05.278Z,24.10
2018-05-21T08:36:33.349Z,24.50
2018-05-21T08:39:01.709Z,24.90
2018-05-21T08:41:29.781Z,25.00
2018-05-21T08:43:58.744Z,25.30
2018-05-21T08:46:26.829Z,26.10
2018-05-21T08:48:54.892Z,25.70
2018-05-21T08:51:23.584Z,26.30
2018-05-21T08:53:51.673Z,25.10
2018-05-21T08:56:19.745Z,24.30
2018-05-21T08:58:48.676Z,24.70
2018-05-21T09:01:16.724Z,25.10
2018-05-21T09:03:44.795Z,24.80
2018-05-21T09:06:13.116Z,24.70
2018-05-21T09:08:41.193Z,24.90
2018-05-21T09:11:10.633Z,25.30
2018-05-21T09:13:38.684Z,25.50
2018-05-21T09:16:06.744Z,26.00
2018-05-21T09:18:35.153Z,26.80
2018-05-21T09:21:03.228Z,27.60
2018-05-21T09:23:31.297Z,27.20
2018-05-21T09:25:59.450Z,27.00
2018-05-21T09:28:27.437Z,27.40
2018-05-21T09:30:55.508Z,26.60
2018-05-21T09:33:23.757Z,26.40
2018-05-21T09:35:52.752Z,26.60
2018-05-21T09:38:20.812Z,26.50
2018-05-21T09:40:48.905Z,26.80
2018-05-21T09:43:17.301Z,27.30
2018-05-21T09:45:45.373Z,27.80
2018-05-21T09:48:13.485Z,27.50
2018-05-21T09:50:41.792Z,28.00
2018-05-21T09:53:09.877Z,26.90
2018-05-21T09:55:38.053Z,27.60
2018-05-21T09:58:06.633Z,28.10
2018-05-21T10:00:34.723Z,28.40
2018-05-21T10:03:02.793Z,28.50
2018-05-21T10:05:31.793Z,27.60
2018-05-21T10:07:59.840Z,28.10
2018-05-21T10:10:27.900Z,28.90
2018-05-21T10:12:56.310Z,29.70
2018-05-21T10:15:24.381Z,30.00
2018-05-21T10:17:53.188Z,29.80
2018-05-21T10:20:22.336Z,30.20
2018-05-21T10:22:50.411Z,30.10
2018-05-21T10:25:18.493Z,28.80
2018-05-21T10:27:46.609Z,26.80
2018-05-21T10:30:15.495Z,27.90
2018-05-21T10:32:43.557Z,27.80
2018-05-21T10:35:11.892Z,28.00
2018-05-21T10:37:39.977Z,28.80
2018-05-21T10:40:08.033Z,29.80
2018-05-21T10:42:36.413Z,28.90
2018-05-21T10:45:04.497Z,28.50
2018-05-21T10:47:32.557Z,28.10
2018-05-21T10:50:00.865Z,29.20
2018-05-21T10:52:28.913Z,30.30
2018-05-21T10:54:56.976Z,30.20
2018-05-21T10:57:25.381Z,29.80
2018-05-21T10:59:53.425Z,30.50
2018-05-21T11:02:21.487Z,30.00
2018-05-21T11:04:49.597Z,28.90
2018-05-21T11:07:17.674Z,29.30
2018-05-21T11:09:45.737Z,29.10
2018-05-21T11:12:14.168Z,29.40
2018-05-21T11:14:42.206Z,29.20
2018-05-21T11:17:10.272Z,28.60
2018-05-21T11:19:38.817Z,27.90
2018-05-21T11:22:06.900Z,29.00
2018-05-21T11:24:35.043Z,29.00
2018-05-21T11:27:03.058Z,28.10
2018-05-21T11:29:31.118Z,28.10
2018-05-21T11:31:59.224Z,28.40
2018-05-21T11:34:27.785Z,29.40
2018-05-21T11:36:55.853Z,30.00
2018-05-21T11:39:23.925Z,29.40
2018-05-21T11:41:51.989Z,29.10
2018-05-21T11:44:20.068Z,28.30
2018-05-21T11:46:48.109Z,28.50
2018-05-21T11:49:16.192Z,28.90
2018-05-21T11:51:44.280Z,28.80
2018-05-21T11:54:12.353Z,29.10
2018-05-21T11:56:40.816Z,28.40
2018-05-21T11:59:08.904Z,28.30
2018-05-21T12:01:36.985Z,28.50
2018-05-21T12:04:05.357Z,28.40
2018-05-21T12:06:33.409Z,28.40
2018-05-21T12:09:01.845Z,29.20
2018-05-21T12:11:29.943Z,29.60
2018-05-21T12:13:58.017Z,29.10
2018-05-21T12:16:26.084Z,27.50
2018-05-21T12:18:54.193Z,27.60
2018-05-21T12:21:22.267Z,27.80
2018-05-21T12:23:50.337Z,29.10
2018-05-21T12:26:19.950Z,30.10
2018-05-21T12:28:49.549Z,30.00
2018-05-21T12:31:17.624Z,30.00
2018-05-21T12:33:45.679Z,28.70
2018-05-21T12:36:13.737Z,27.80
2018-05-21T12:38:41.824Z,28.10
2018-05-21T12:41:10.288Z,28.80
2018-05-21T12:43:38.444Z,28.30
2018-05-21T12:46:06.473Z,28.60
2018-05-21T12:48:34.517Z,28.60
2018-05-21T12:51:02.606Z,28.90
2018-05-21T12:53:30.656Z,29.10
2018-05-21T12:55:59.464Z,29.10
2018-05-21T12:58:27.537Z,29.20
2018-05-21T13:00:55.604Z,29.30
2018-05-21T13:03:23.701Z,29.30
2018-05-21T13:05:52.556Z,29.50
2018-05-21T13:08:20.641Z,29.40
2018-05-21T13:10:48.737Z,29.10
2018-05-21T13:13:17.569Z,29.10
2018-05-21T13:15:45.631Z,29.10
2018-05-21T13:18:13.921Z,28.80
2018-05-21T13:20:41.985Z,28.50
2018-05-21T13:23:10.080Z,28.20
2018-05-21T13:25:38.360Z,28.80
2018-05-21T13:28:06.487Z,29.20
2018-05-21T13:30:34.512Z,29.50
2018-05-21T13:33:02.893Z,29.40
2018-05-21T13:35:30.964Z,29.40
2018-05-21T13:37:59.033Z,29.60
2018-05-21T13:40:27.122Z,29.70
2018-05-21T13:42:56.685Z,29.80
2018-05-21T13:45:24.947Z,29.80
2018-05-21T13:47:53.337Z,29.90
2018-05-21T13:50:21.421Z,28.90
2018-05-21T13:52:49.510Z,28.50
2018-05-21T13:55:17.569Z,28.80
2018-05-21T13:57:45.841Z,28.70
2018-05-21T14:00:13.901Z,28.90
2018-05-21T14:02:42.513Z,29.20
2018-05-21T14:05:10.556Z,29.10
2018-05-21T14:07:38.616Z,28.80
2018-05-21T14:10:07.049Z,28.30
2018-05-21T14:12:35.198Z,27.80
2018-05-21T14:15:03.980Z,27.10
2018-05-21T14:17:32.081Z,27.10
2018-05-21T14:20:00.152Z,27.40
2018-05-21T14:22:28.193Z,28.50
2018-05-21T14:24:56.547Z,28.20
2018-05-21T14:27:25.565Z,28.30
2018-05-21T14:29:53.679Z,28.60
2018-05-21T14:32:21.681Z,28.50
2018-05-21T14:34:50.101Z,29.10
2018-05-21T14:37:18.144Z,29.00
2018-05-21T14:39:46.229Z,27.60
2018-05-21T14:42:14.332Z,26.80
2018-05-21T14:44:42.400Z,26.20
2018-05-21T14:47:10.473Z,26.10
2018-05-21T14:49:39.016Z,26.00
2018-05-21T14:52:07.301Z,25.70
2018-05-21T14:54:35.361Z,25.80
2018-05-21T14:57:03.768Z,25.80
2018-05-21T14:59:31.824Z,25.90
2018-05-21T15:01:59.998Z,26.60
2018-05-21T15:04:28.291Z,27.40
2018-05-21T15:06:56.361Z,27.60
2018-05-21T15:09:24.433Z,27.80
2018-05-21T15:11:53.117Z,28.00
2018-05-21T15:14:21.161Z,28.00
2018-05-21T15:16:49.277Z,27.40
2018-05-21T15:19:18.461Z,26.50
2018-05-21T15:21:46.528Z,26.50
2018-05-21T15:24:14.606Z,26.00
2018-05-21T15:26:42.689Z,24.80
2018-05-21T15:29:11.753Z,24.80
2018-05-21T15:31:39.809Z,24.70
2018-05-21T15:34:08.386Z,25.00
2018-05-21T15:36:36.481Z,25.10
2018-05-21T15:39:04.564Z,25.20
2018-05-21T15:41:32.945Z,25.20
2018-05-21T15:44:00.990Z,25.30
2018-05-21T15:46:29.074Z,25.40
2018-05-21T15:48:57.979Z,25.40
2018-05-21T15:51:26.048Z,25.60
2018-05-21T15:53:54.903Z,25.60
2018-05-21T15:56:23.022Z,25.60
2018-05-21T15:58:51.100Z,25.60
2018-05-21T16:01:19.171Z,25.70
2018-05-21T16:03:47.541Z,25.80
2018-05-21T16:06:15.622Z,25.50
2018-05-21T16:08:43.756Z,25.40
2018-05-21T16:11:12.229Z,25.30
2018-05-21T16:13:40.313Z,25.50
2018-05-21T16:16:08.405Z,25.80
2018-05-21T16:18:36.469Z,25.90
2018-05-21T16:21:04.529Z,26.00
2018-05-21T16:23:32.589Z,26.00
2018-05-21T16:26:00.965Z,25.90
2018-05-21T16:28:29.029Z,25.90
2018-05-21T16:30:57.130Z,25.80
2018-05-21T16:33:26.208Z,25.60
2018-05-21T16:35:54.265Z,25.30
2018-05-21T16:38:22.421Z,25.10
2018-05-21T16:40:51.061Z,25.00
2018-05-21T16:43:19.133Z,24.70
2018-05-21T16:45:47.176Z,24.70
2018-05-21T16:48:15.256Z,24.60
2018-05-21T16:50:43.537Z,24.60
2018-05-21T16:53:11.593Z,24.40
2018-05-21T16:55:39.901Z,24.30
2018-05-21T16:58:07.940Z,24.20
2018-05-21T17:00:36.026Z,24.10
2018-05-21T17:03:04.492Z,24.00
2018-05-21T17:05:32.552Z,24.00
2018-05-21T17:08:01.208Z,23.80
2018-05-21T17:10:29.264Z,23.70
2018-05-21T17:12:57.307Z,23.60
2018-05-21T17:15:25.669Z,23.50
2018-05-21T17:17:53.757Z,23.40
2018-05-21T17:20:21.923Z,23.30
2018-05-21T17:22:49.916Z,23.20
2018-05-21T17:25:17.964Z,23.10
2018-05-21T17:27:46.025Z,22.80
2018-05-21T17:30:14.406Z,22.70
2018-05-21T17:32:42.597Z,22.60
2018-05-21T17:35:10.676Z,22.60
2018-05-21T17:37:38.770Z,22.50
2018-05-21T17:40:07.599Z,22.30
2018-05-21T17:42:35.670Z,22.30
2018-05-21T17:45:03.753Z,22.20
2018-05-21T17:47:31.817Z,22.20
2018-05-21T17:49:59.912Z,22.20
2018-05-21T17:52:28.307Z,22.20
2018-05-21T17:54:57.874Z,22.10
2018-05-21T17:57:25.957Z,22.10
2018-05-21T17:59:54.038Z,22.10
2018-05-21T18:02:22.096Z,21.90
2018-05-21T18:04:50.185Z,21.80
2018-05-21T18:07:18.548Z,21.60
2018-05-21T18:09:46.788Z,21.40
2018-05-21T18:12:14.885Z,21.30
2018-05-21T18:14:43.122Z,21.20
2018-05-21T18:17:11.973Z,21.00
2018-05-21T18:19:40.061Z,21.00
2018-05-21T18:22:08.503Z,20.90
2018-05-21T18:24:36.574Z,20.80
2018-05-21T18:27:04.620Z,20.60
2018-05-21T18:29:33.061Z,20.50
2018-05-21T18:32:01.134Z,20.40
2018-05-21T18:34:29.368Z,20.30
2018-05-21T18:36:57.481Z,20.20
2018-05-21T18:39:25.529Z,20.10
2018-05-21T18:41:53.609Z,20.00
2018-05-21T18:44:21.669Z,19.80
2018-05-21T18:46:49.733Z,19.60
2018-05-21T18:49:17.796Z,19.50
2018-05-21T18:51:46.177Z,19.30
2018-05-21T18:54:14.251Z,19.20
2018-05-21T18:56:42.296Z,19.10
2018-05-21T18:59:10.724Z,19.00
2018-05-21T19:01:38.784Z,18.90
2018-05-21T19:04:06.865Z,18.80
2018-05-21T19:06:35.246Z,18.70
2018-05-21T19:09:03.313Z,18.60
2018-05-21T19:11:31.521Z,18.50
2018-05-21T19:13:59.584Z,18.40
2018-05-21T19:16:27.667Z,18.30
2018-05-21T19:18:56.522Z,18.00
2018-05-21T19:21:25.024Z,18.10
2018-05-21T19:23:53.090Z,18.00
2018-05-21T19:26:21.137Z,17.90
2018-05-21T19:28:49.512Z,17.80
2018-05-21T19:31:17.572Z,17.70
2018-05-21T19:33:45.673Z,17.60
2018-05-21T19:36:13.828Z,17.60
2018-05-21T19:38:41.912Z,17.40
2018-05-21T19:41:09.977Z,17.30
2018-05-21T19:43:38.477Z,17.20
2018-05-21T19:46:06.553Z,17.00
2018-05-21T19:48:34.624Z,16.90
2018-05-21T19:51:03.001Z,16.80
2018-05-21T19:53:31.077Z,16.80
2018-05-21T19:55:59.118Z,16.70
2018-05-21T19:58:27.498Z,16.70
2018-05-21T20:00:55.556Z,16.70
2018-05-21T20:03:23.649Z,16.60
2018-05-21T20:05:52.120Z,16.50
2018-05-21T20:08:20.214Z,16.40
2018-05-21T20:10:48.260Z,16.30
2018-05-21T20:13:16.773Z,16.20
2018-05-21T20:15:44.861Z,16.10
2018-05-21T20:18:12.896Z,16.10
2018-05-21T20:20:40.969Z,16.00
2018-05-21T20:23:09.028Z,16.00
2018-05-21T20:25:37.117Z,16.00
2018-05-21T20:28:05.477Z,16.00
2018-05-21T20:30:33.561Z,15.90
2018-05-21T20:33:01.622Z,15.90
2018-05-21T20:35:29.722Z,15.70
2018-05-21T20:37:57.779Z,15.70
2018-05-21T20:40:25.836Z,15.60
2018-05-21T20:42:54.228Z,15.60
2018-05-21T20:45:22.379Z,15.50
2018-05-21T20:47:50.344Z,15.50
2018-05-21T20:50:18.572Z,15.40
2018-05-21T20:52:46.645Z,15.40
2018-05-21T20:55:14.684Z,15.40
2018-05-21T20:57:43.049Z,15.40
2018-05-21T21:00:11.137Z,15.30
2018-05-21T21:02:39.309Z,15.20
2018-05-21T21:05:07.673Z,15.20
2018-05-21T21:07:35.769Z,15.10
2018-05-21T21:10:03.850Z,15.10
2018-05-21T21:12:31.925Z,15.10
2018-05-21T21:15:00.049Z,15.10
2018-05-21T21:17:28.120Z,15.10
2018-05-21T21:19:56.205Z,15.00
2018-05-21T21:22:24.289Z,15.00
2018-05-21T21:24:52.348Z,14.90
2018-05-21T21:27:20.854Z,14.90
2018-05-21T21:29:48.900Z,14.80
2018-05-21T21:32:16.960Z,14.80
2018-05-21T21:34:45.072Z,14.80
2018-05-21T21:37:13.148Z,14.80
2018-05-21T21:39:41.197Z,14.70
2018-05-21T21:42:09.527Z,14.70
2018-05-21T21:44:38.429Z,14.70
2018-05-21T21:47:06.428Z,14.60
2018-05-21T21:49:34.811Z,14.70
2018-05-21T21:52:02.865Z,14.60
2018-05-21T21:54:30.936Z,14.60
2018-05-21T21:56:59.221Z,14.60
2018-05-21T21:59:27.304Z,14.50
2018-05-21T22:01:55.364Z,14.50
2018-05-21T22:04:23.437Z,14.50
2018-05-21T22:06:51.525Z,14.40
2018-05-21T22:09:19.581Z,14.40
2018-05-21T22:11:47.985Z,14.40
2018-05-21T22:14:16.062Z,14.40
2018-05-21T22:16:44.196Z,14.40
2018-05-21T22:19:12.273Z,14.40
2018-05-21T22:21:40.356Z,14.30
2018-05-21T22:24:08.417Z,14.30
2018-05-21T22:26:36.517Z,14.30
2018-05-21T22:29:04.601Z,14.30
2018-05-21T22:31:32.656Z,14.30
2018-05-21T22:34:00.744Z,14.30
2018-05-21T22:36:28.787Z,14.30
2018-05-21T22:38:56.845Z,14.30
2018-05-21T22:41:24.928Z,14.20
2018-05-21T22:43:53.030Z,14.20
2018-05-21T22:46:21.101Z,14.20
2018-05-21T22:48:49.189Z,14.20
2018-05-21T22:51:18.009Z,14.20
2018-05-21T22:53:46.104Z,14.20
2018-05-21T22:56:14.209Z,14.20
2018-05-21T22:58:42.244Z,14.30
2018-05-21T23:01:10.305Z,14.30
2018-05-21T23:03:38.609Z,14.20
2018-05-21T23:06:06.770Z,14.30
2018-05-21T23:08:34.857Z,14.30
2018-05-21T23:11:02.949Z,14.30
2018-05-21T23:13:31.801Z,14.40
2018-05-21T23:15:59.909Z,14.40
2018-05-21T23:18:28.856Z,14.50
2018-05-21T23:20:56.937Z,14.40
2018-05-21T23:23:25.041Z,14.50
2018-05-21T23:25:53.317Z,14.50
2018-05-21T23:28:21.356Z,14.50
2018-05-21T23:30:49.413Z,14.50
2018-05-21T23:33:17.517Z,14.60
2018-05-21T23:35:45.585Z,14.50
2018-05-21T23:38:13.656Z,14.40
2018-05-21T23:40:41.748Z,14.30
2018-05-21T23:43:10.577Z,14.40
2018-05-21T23:45:38.665Z,14.40
2018-05-21T23:48:06.748Z,14.40
2018-05-21T23:50:34.804Z,14.40
2018-05-21T23:53:02.893Z,14.40
2018-05-21T23:55:31.285Z,14.40
2018-05-21T23:57:59.357Z,14.40
